createdAt,value
2018-01-12T00:00:50.707Z,85.70
2018-01-12T00:03:18.201Z,85.60
2018-01-12T00:05:45.716Z,85.80
2018-01-12T00:08:13.222Z,85.30
2018-01-12T00:10:40.742Z,85.60
2018-01-12T00:13:09.007Z,85.90
2018-01-12T00:15:36.518Z,85.90
2018-01-12T00:18:04.031Z,86.10
2018-01-12T00:20:31.526Z,86.20
2018-01-12T00:22:59.028Z,86.10
2018-01-12T00:25:26.526Z,86.10
2018-01-12T00:27:54.795Z,85.60
2018-01-12T00:30:23.067Z,85.90
2018-01-12T00:32:51.458Z,86.00
2018-01-12T00:35:19.718Z,86.10
2018-01-12T00:37:47.986Z,86.30
2018-01-12T00:40:15.491Z,86.20
2018-01-12T00:42:42.988Z,86.20
2018-01-12T00:45:10.498Z,86.00
2018-01-12T00:47:37.995Z,85.80
2018-01-12T00:50:05.567Z,85.80
2018-01-12T00:52:33.218Z,85.40
2018-01-12T00:55:00.754Z,85.30
2018-01-12T00:57:28.995Z,85.20
2018-01-12T00:59:57.258Z,85.40
2018-01-12T01:02:25.531Z,85.80
2018-01-12T01:04:53.034Z,85.60
2018-01-12T01:07:20.535Z,85.80
2018-01-12T01:09:48.052Z,85.80
2018-01-12T01:12:15.554Z,86.00
2018-01-12T01:14:43.055Z,86.10
2018-01-12T01:17:10.554Z,86.20
2018-01-12T01:19:38.255Z,86.10
2018-01-12T01:22:06.519Z,86.20
2018-01-12T01:24:34.018Z,86.10
2018-01-12T01:27:01.534Z,86.20
2018-01-12T01:29:29.826Z,86.40
2018-01-12T01:31:58.099Z,86.20
2018-01-12T01:34:26.367Z,85.90
2018-01-12T01:36:54.639Z,85.50
2018-01-12T01:39:22.139Z,85.60
2018-01-12T01:41:49.680Z,85.60
2018-01-12T01:44:17.954Z,85.60
2018-01-12T01:46:46.211Z,85.20
2018-01-12T01:49:13.727Z,85.20
2018-01-12T01:51:41.342Z,85.40
2018-01-12T01:54:09.600Z,85.60
2018-01-12T01:56:37.096Z,85.60
2018-01-12T01:59:04.635Z,85.90
2018-01-12T02:01:32.898Z,86.40
2018-01-12T02:04:00.402Z,86.40
2018-01-12T02:06:27.899Z,86.10
2018-01-12T02:08:55.391Z,86.00
2018-01-12T02:11:23.655Z,86.00
2018-01-12T02:13:51.939Z,85.90
2018-01-12T02:16:20.207Z,85.70
2018-01-12T02:18:48.480Z,85.90
2018-01-12T02:21:15.990Z,85.80
2018-01-12T02:23:43.514Z,85.90
2018-01-12T02:26:11.814Z,85.80
2018-01-12T02:28:39.310Z,85.80
2018-01-12T02:31:06.860Z,85.90
2018-01-12T02:33:34.363Z,85.80
2018-01-12T02:36:02.639Z,86.00
2018-01-12T02:38:30.899Z,85.70
2018-01-12T02:40:58.402Z,85.70
2018-01-12T02:43:26.019Z,85.80
2018-01-12T02:45:53.705Z,86.00
2018-01-12T02:48:21.967Z,86.20
2018-01-12T02:50:50.232Z,86.30
2018-01-12T02:53:17.728Z,86.30
2018-01-12T02:55:45.406Z,86.70
2018-01-12T02:58:12.908Z,85.90
2018-01-12T03:00:40.404Z,85.70
2018-01-12T03:03:07.902Z,85.60
2018-01-12T03:05:35.446Z,85.70
2018-01-12T03:08:03.166Z,85.60
2018-01-12T03:10:31.430Z,85.40
2018-01-12T03:12:59.696Z,85.70
2018-01-12T03:15:27.217Z,85.70
2018-01-12T03:17:54.726Z,85.90
2018-01-12T03:20:22.999Z,86.30
2018-01-12T03:22:51.287Z,86.20
2018-01-12T03:25:19.552Z,86.50
2018-01-12T03:27:47.823Z,86.90
2018-01-12T03:30:15.328Z,86.20
2018-01-12T03:32:42.829Z,86.90
2018-01-12T03:35:10.340Z,86.50
2018-01-12T03:37:37.834Z,86.00
2018-01-12T03:40:05.331Z,86.20
2018-01-12T03:42:33.595Z,85.90
2018-01-12T03:45:01.268Z,85.90
2018-01-12T03:47:29.547Z,85.40
2018-01-12T03:49:57.819Z,85.40
2018-01-12T03:52:26.120Z,85.60
2018-01-12T03:54:53.617Z,85.60
2018-01-12T03:57:21.112Z,85.90
2018-01-12T03:59:49.383Z,85.40
2018-01-12T04:02:17.650Z,85.50
2018-01-12T04:04:45.158Z,85.50
2018-01-12T04:07:12.675Z,85.40
2018-01-12T04:09:40.951Z,85.70
2018-01-12T04:12:09.228Z,85.30
2018-01-12T04:14:37.502Z,85.50
2018-01-12T04:17:05.778Z,86.50
2018-01-12T04:19:34.038Z,85.90
2018-01-12T04:22:01.531Z,85.80
2018-01-12T04:24:29.815Z,86.10
2018-01-12T04:26:57.323Z,86.10
2018-01-12T04:29:24.823Z,86.00
2018-01-12T04:31:53.095Z,86.20
2018-01-12T04:34:21.375Z,85.80
2018-01-12T04:36:49.647Z,85.80
2018-01-12T04:39:17.910Z,85.50
2018-01-12T04:41:46.270Z,85.30
2018-01-12T04:44:13.767Z,85.30
2018-01-12T04:46:41.276Z,85.30
2018-01-12T04:49:08.784Z,85.30
2018-01-12T04:51:36.284Z,85.30
2018-01-12T04:54:03.778Z,85.50
2018-01-12T04:56:32.069Z,85.80
2018-01-12T04:59:00.345Z,85.90
2018-01-12T05:01:28.636Z,86.10
2018-01-12T05:03:56.256Z,86.10
2018-01-12T05:06:23.766Z,86.30
2018-01-12T05:08:51.271Z,86.20
2018-01-12T05:11:18.972Z,86.60
2018-01-12T05:13:46.628Z,86.60
2018-01-12T05:16:15.192Z,86.80
2018-01-12T05:18:43.481Z,86.80
2018-01-12T05:21:11.775Z,87.10
2018-01-12T05:23:39.271Z,87.00
2018-01-12T05:26:06.763Z,87.00
2018-01-12T05:28:35.043Z,86.80
2018-01-12T05:31:03.311Z,87.10
2018-01-12T05:33:30.807Z,87.10
2018-01-12T05:35:58.309Z,87.30
2018-01-12T05:38:25.829Z,87.20
2018-01-12T05:40:54.218Z,87.30
2018-01-12T05:43:21.723Z,86.90
2018-01-12T05:45:49.223Z,87.10
2018-01-12T05:50:50.666Z,87.00
2018-01-12T05:53:18.942Z,86.50
2018-01-12T05:55:47.227Z,86.60
2018-01-12T05:58:15.507Z,86.70
2018-01-12T06:14:09.497Z,86.40
2018-01-12T06:16:37.007Z,86.30
2018-01-12T06:19:05.276Z,86.80
2018-01-12T06:21:32.800Z,86.70
2018-01-12T06:24:00.315Z,86.50
2018-01-12T06:26:28.583Z,86.40
2018-01-12T06:28:56.839Z,86.20
2018-01-12T06:31:24.339Z,86.20
2018-01-12T06:33:51.835Z,86.00
2018-01-12T06:36:19.326Z,86.00
2018-01-12T06:38:46.828Z,85.80
2018-01-12T06:41:14.347Z,85.80
2018-01-12T06:43:42.606Z,85.40
2018-01-12T06:46:10.163Z,85.40
2018-01-12T06:48:37.673Z,85.50
2018-01-12T06:51:05.173Z,85.20
2018-01-12T06:53:32.739Z,85.20
2018-01-12T06:56:00.208Z,85.20
2018-01-12T06:58:27.706Z,85.50
2018-01-12T07:00:55.207Z,86.40
2018-01-12T07:03:22.711Z,85.50
2018-01-12T07:05:50.219Z,85.70
2018-01-12T07:08:17.718Z,86.10
2018-01-12T07:10:45.983Z,86.20
2018-01-12T07:13:14.262Z,86.20
2018-01-12T07:15:42.522Z,86.40
2018-01-12T07:18:10.039Z,86.40
2018-01-12T07:20:49.528Z,86.50
2018-01-12T07:23:31.922Z,87.90
2018-01-12T07:25:59.431Z,88.70
2018-01-12T07:28:26.935Z,86.80
2018-01-12T07:30:54.446Z,85.80
2018-01-12T07:33:21.944Z,85.50
2018-01-12T07:35:49.450Z,85.10
2018-01-12T07:38:16.954Z,84.60
2018-01-12T07:40:44.462Z,84.60
2018-01-12T07:43:12.726Z,84.80
2018-01-12T07:45:41.223Z,84.90
2018-01-12T07:48:09.504Z,85.20
2018-01-12T07:50:37.007Z,85.30
2018-01-12T07:53:10.203Z,85.60
2018-01-12T07:55:37.697Z,85.80
2018-01-12T07:58:06.004Z,85.50
2018-01-12T08:00:39.359Z,85.40
2018-01-12T08:03:07.627Z,85.70
2018-01-12T08:05:35.306Z,85.60
2018-01-12T08:08:03.653Z,85.30
2018-01-12T08:10:31.342Z,85.30
2018-01-12T08:12:59.608Z,84.40
2018-01-12T08:15:27.107Z,84.40
2018-01-12T08:17:54.651Z,84.30
2018-01-12T08:20:22.154Z,84.20
2018-01-12T08:22:49.654Z,84.40
2018-01-12T08:25:17.970Z,84.40
2018-01-12T08:27:45.498Z,84.30
2018-01-12T08:30:13.035Z,84.20
2018-01-12T08:32:40.555Z,84.50
2018-01-12T08:35:08.077Z,83.90
2018-01-12T08:37:36.375Z,84.20
2018-01-12T08:40:03.890Z,84.20
2018-01-12T08:42:31.416Z,84.10
2018-01-12T08:44:58.951Z,84.50
2018-01-12T08:47:26.617Z,84.50
2018-01-12T08:49:54.203Z,84.30
2018-01-12T08:52:21.921Z,84.30
2018-01-12T08:54:49.475Z,84.00
2018-01-12T08:57:17.793Z,83.10
2018-01-12T08:59:45.302Z,83.10
2018-01-12T09:02:13.562Z,83.30
2018-01-12T09:04:41.840Z,83.20
2018-01-12T09:07:09.347Z,83.20
2018-01-12T09:09:36.845Z,83.10
2018-01-12T09:12:04.334Z,83.10
2018-01-12T09:14:44.423Z,83.30
2018-01-12T09:17:12.719Z,83.30
2018-01-12T09:19:48.224Z,83.10
2018-01-12T09:22:27.715Z,83.60
2018-01-12T09:24:55.234Z,83.60
2018-01-12T09:27:22.736Z,83.70
2018-01-12T09:29:50.246Z,83.80
2018-01-12T09:32:18.115Z,83.80
2018-01-12T09:35:05.442Z,83.70
2018-01-12T09:37:39.826Z,84.10
2018-01-12T09:40:29.046Z,83.40
2018-01-12T09:42:56.579Z,83.40
2018-01-12T09:45:24.104Z,83.10
2018-01-12T09:48:03.474Z,83.50
2018-01-12T09:50:31.037Z,84.30
2018-01-12T09:52:58.606Z,83.90
2018-01-12T09:55:26.252Z,83.70
2018-01-12T09:57:53.771Z,83.10
2018-01-12T10:13:48.778Z,83.20
2018-01-12T10:16:17.149Z,83.60
2018-01-12T10:18:45.424Z,83.10
2018-01-12T10:21:24.815Z,83.10
2018-01-12T10:23:52.394Z,83.10
2018-01-12T10:26:19.858Z,82.40
2018-01-12T10:29:08.302Z,82.60
2018-01-12T10:31:50.680Z,82.60
2018-01-12T10:34:24.070Z,83.00
2018-01-12T10:36:55.662Z,82.90
2018-01-12T10:39:23.170Z,82.90
2018-01-12T10:42:01.730Z,82.70
2018-01-12T10:44:29.243Z,83.00
2018-01-12T10:47:08.701Z,82.50
2018-01-12T10:49:36.218Z,82.60
2018-01-12T10:52:12.592Z,82.60
2018-01-12T10:54:40.870Z,82.00
2018-01-12T10:57:09.137Z,81.90
2018-01-12T10:59:37.410Z,81.90
2018-01-12T11:02:04.906Z,81.80
2018-01-12T11:04:32.418Z,82.00
2018-01-12T11:06:59.984Z,82.00
2018-01-12T11:09:27.482Z,82.40
2018-01-12T11:11:54.974Z,82.40
2018-01-12T11:14:22.474Z,82.70
2018-01-12T11:16:50.745Z,82.50
2018-01-12T11:19:19.226Z,82.50
2018-01-12T11:21:47.496Z,82.80
2018-01-12T11:24:15.756Z,83.90
2018-01-12T11:26:43.270Z,83.00
2018-01-12T11:29:10.771Z,83.50
2018-01-12T11:31:38.333Z,83.40
2018-01-12T11:34:05.827Z,83.60
2018-01-12T11:36:33.334Z,83.60
2018-01-12T11:39:00.852Z,83.30
2018-01-12T11:41:28.342Z,82.80
2018-01-12T11:43:56.259Z,82.60
2018-01-12T11:46:24.527Z,82.50
2018-01-12T11:48:52.809Z,82.70
2018-01-12T11:51:21.111Z,82.50
2018-01-12T11:53:48.607Z,82.50
2018-01-12T11:56:16.103Z,82.90
2018-01-12T11:58:44.390Z,82.90
2018-01-12T12:01:12.642Z,82.60
2018-01-12T12:03:40.162Z,82.60
2018-01-12T12:06:07.670Z,82.90
2018-01-12T12:08:35.938Z,83.10
2018-01-12T12:11:03.435Z,83.10
2018-01-12T12:13:30.937Z,83.00
2018-01-12T12:15:58.438Z,83.30
2018-01-12T12:18:25.943Z,83.30
2018-01-12T12:20:53.437Z,83.10
2018-01-12T12:23:21.703Z,83.20
2018-01-12T12:25:49.200Z,83.20
2018-01-12T12:28:16.705Z,83.00
2018-01-12T12:30:45.718Z,82.60
2018-01-12T12:33:14.000Z,82.90
2018-01-12T12:35:42.262Z,82.90
2018-01-12T12:38:09.763Z,82.90
2018-01-12T12:40:37.295Z,83.70
2018-01-12T12:43:05.562Z,83.00
2018-01-12T12:45:33.822Z,83.20
2018-01-12T12:48:01.342Z,83.10
2018-01-12T12:50:28.839Z,83.00
2018-01-12T12:52:56.344Z,83.30
2018-01-12T12:55:23.854Z,83.60
2018-01-12T12:57:51.353Z,83.40
2018-01-12T13:00:18.854Z,83.70
2018-01-12T13:02:46.389Z,84.00
2018-01-12T13:05:13.887Z,83.90
2018-01-12T13:07:41.386Z,83.70
2018-01-12T13:10:08.898Z,83.20
2018-01-12T13:12:36.394Z,82.90
2018-01-12T13:15:04.650Z,82.70
2018-01-12T13:17:32.144Z,82.70
2018-01-12T13:19:59.648Z,82.70
2018-01-12T13:22:27.140Z,82.60
2018-01-12T13:24:55.401Z,83.00
2018-01-12T13:27:23.706Z,83.20
2018-01-12T13:29:51.217Z,83.20
2018-01-12T13:32:18.712Z,83.00
2018-01-12T13:34:46.971Z,83.40
2018-01-12T13:37:14.463Z,83.40
2018-01-12T13:39:41.962Z,83.40
2018-01-12T13:42:09.484Z,83.10
2018-01-12T13:44:36.978Z,83.30
2018-01-12T13:47:04.492Z,83.00
2018-01-12T13:49:32.011Z,83.30
2018-01-12T13:51:59.519Z,83.30
2018-01-12T13:54:27.018Z,83.30
2018-01-12T13:56:54.526Z,83.20
2018-01-12T13:59:22.047Z,82.60
2018-01-12T14:01:49.530Z,83.20
2018-01-12T14:04:17.807Z,83.10
2018-01-12T14:06:46.266Z,83.00
2018-01-12T14:09:13.760Z,83.00
2018-01-12T14:11:41.279Z,83.90
2018-01-12T14:14:09.550Z,83.20
2018-01-12T14:16:37.810Z,83.00
2018-01-12T14:19:05.302Z,83.20
2018-01-12T14:21:33.559Z,83.70
2018-01-12T14:24:01.238Z,83.60
2018-01-12T14:26:29.507Z,83.30
2018-01-12T14:28:57.014Z,83.30
2018-01-12T14:31:24.522Z,83.70
2018-01-12T14:33:52.020Z,83.40
2018-01-12T14:36:19.516Z,83.50
2018-01-12T14:38:47.026Z,83.20
2018-01-12T14:41:14.527Z,83.40
2018-01-12T14:43:42.038Z,83.40
2018-01-12T14:46:10.343Z,83.10
2018-01-12T14:48:37.838Z,83.00
2018-01-12T14:51:05.402Z,83.30
2018-01-12T14:53:32.894Z,83.30
2018-01-12T14:56:00.399Z,83.40
2018-01-12T14:58:27.947Z,83.60
2018-01-12T15:00:55.442Z,83.80
2018-01-12T15:03:22.938Z,83.40
2018-01-12T15:05:50.459Z,84.00
2018-01-12T15:08:18.723Z,83.60
2018-01-12T15:10:46.234Z,84.10
2018-01-12T15:13:13.730Z,83.50
2018-01-12T15:15:41.311Z,83.40
2018-01-12T15:18:08.810Z,83.30
2018-01-12T15:20:36.307Z,83.60
2018-01-12T15:23:03.846Z,83.60
2018-01-12T15:25:31.342Z,83.70
2018-01-12T15:27:58.844Z,83.80
2018-01-12T15:30:26.343Z,83.30
2018-01-12T15:32:53.838Z,84.10
2018-01-12T15:35:22.107Z,84.50
2018-01-12T15:37:50.470Z,84.90
2018-01-12T15:40:17.970Z,84.90
2018-01-12T15:42:45.466Z,84.40
2018-01-12T15:45:12.958Z,85.40
2018-01-12T15:47:41.215Z,85.60
2018-01-12T15:50:08.726Z,85.50
2018-01-12T15:52:36.239Z,85.60
2018-01-12T15:55:03.736Z,85.90
2018-01-12T15:57:31.244Z,86.10
2018-01-12T15:59:58.765Z,86.00
2018-01-12T16:02:26.270Z,86.10
2018-01-12T16:04:53.772Z,86.20
2018-01-12T16:07:21.271Z,86.20
2018-01-12T16:09:48.888Z,86.20
2018-01-12T16:12:16.378Z,85.90
2018-01-12T16:14:43.898Z,85.60
2018-01-12T16:17:11.398Z,85.50
2018-01-12T16:19:38.893Z,85.40
2018-01-12T16:22:07.170Z,86.30
2018-01-12T16:24:35.442Z,86.00
2018-01-12T16:27:03.714Z,85.80
2018-01-12T16:29:31.978Z,86.20
2018-01-12T16:31:59.518Z,86.10
2018-01-12T16:34:27.018Z,85.20
2018-01-12T16:36:55.284Z,85.20
2018-01-12T16:39:22.816Z,85.20
2018-01-12T16:41:50.316Z,85.50
2018-01-12T16:44:18.577Z,85.70
2018-01-12T16:46:46.068Z,85.70
2018-01-12T16:49:13.570Z,85.60
2018-01-12T16:51:41.089Z,85.50
2018-01-12T16:54:08.578Z,85.60
2018-01-12T16:56:36.082Z,85.60
2018-01-12T16:59:04.346Z,85.70
2018-01-12T17:01:32.624Z,85.70
2018-01-12T17:04:00.898Z,85.30
2018-01-12T17:06:29.206Z,85.10
2018-01-12T17:08:56.698Z,85.10
2018-01-12T17:11:24.195Z,85.10
2018-01-12T17:13:52.470Z,85.10
2018-01-12T17:16:20.782Z,85.10
2018-01-12T17:18:48.279Z,85.10
2018-01-12T17:21:15.796Z,85.20
2018-01-12T17:23:43.302Z,85.30
2018-01-12T17:26:10.802Z,85.50
2018-01-12T17:28:38.299Z,85.50
2018-01-12T17:31:05.806Z,85.60
2018-01-12T17:33:34.071Z,85.70
2018-01-12T17:36:02.342Z,85.90
2018-01-12T17:38:29.951Z,85.80
2018-01-12T17:40:57.450Z,86.70
2018-01-12T17:43:24.991Z,86.10
2018-01-12T17:45:52.490Z,86.50
2018-01-12T17:48:20.863Z,87.10
2018-01-12T17:50:49.130Z,86.30
2018-01-12T17:53:16.812Z,86.30
2018-01-12T17:55:45.090Z,86.00
2018-01-12T17:58:13.357Z,85.90
2018-01-12T18:00:41.752Z,85.80
2018-01-12T18:03:09.252Z,85.80
2018-01-12T18:05:36.763Z,85.90
2018-01-12T18:08:05.020Z,86.20
2018-01-12T18:10:32.534Z,86.10
2018-01-12T18:13:00.032Z,86.40
2018-01-12T18:15:27.708Z,86.20
2018-01-12T18:17:55.976Z,86.40
2018-01-12T18:20:23.651Z,86.30
2018-01-12T18:22:51.910Z,86.90
2018-01-12T18:25:19.411Z,86.90
2018-01-12T18:27:46.920Z,86.90
2018-01-12T18:30:14.422Z,86.90
2018-01-12T18:32:41.933Z,86.70
2018-01-12T18:35:09.427Z,86.80
2018-01-12T18:37:36.922Z,86.80
2018-01-12T18:40:04.442Z,86.80
2018-01-12T18:42:32.706Z,86.80
2018-01-12T18:45:00.971Z,87.00
2018-01-12T18:47:28.483Z,87.00
2018-01-12T18:49:55.991Z,86.40
2018-01-12T18:52:23.486Z,87.00
2018-01-12T18:54:50.987Z,87.00
2018-01-12T18:57:18.604Z,86.90
2018-01-12T18:59:46.146Z,86.90
2018-01-12T19:02:14.423Z,86.80
2018-01-12T19:04:42.693Z,86.70
2018-01-12T19:07:11.006Z,87.10
2018-01-12T19:09:38.526Z,87.10
2018-01-12T19:12:06.790Z,90.50
2018-01-12T19:14:35.085Z,87.00
2018-01-12T19:17:03.362Z,85.50
2018-01-12T19:19:31.621Z,85.00
2018-01-12T19:21:59.882Z,84.80
2018-01-12T19:24:27.567Z,84.50
2018-01-12T19:26:55.078Z,84.70
2018-01-12T19:29:22.576Z,84.80
2018-01-12T19:31:50.887Z,85.00
2018-01-12T19:34:18.386Z,84.80
2018-01-12T19:36:45.887Z,84.80
2018-01-12T19:39:13.391Z,84.90
2018-01-12T19:41:40.903Z,85.00
2018-01-12T19:44:09.211Z,84.80
2018-01-12T19:46:36.714Z,84.80
2018-01-12T19:49:04.293Z,84.70
2018-01-12T19:51:32.608Z,84.60
2018-01-12T19:54:00.118Z,84.60
2018-01-12T19:56:28.426Z,84.50
2018-01-12T19:58:55.954Z,84.40
2018-01-12T20:01:24.283Z,84.60
2018-01-12T20:03:51.901Z,84.60
2018-01-12T20:06:20.168Z,84.60
2018-01-12T20:08:48.458Z,84.70
2018-01-12T20:11:16.776Z,84.50
2018-01-12T20:13:44.279Z,84.50
2018-01-12T20:16:12.554Z,84.70
2018-01-12T20:18:40.855Z,84.70
2018-01-12T20:21:08.365Z,84.60
2018-01-12T20:23:35.891Z,84.70
2018-01-12T20:26:03.394Z,84.80
2018-01-12T20:28:30.946Z,84.80
2018-01-12T20:30:58.461Z,84.70
2018-01-12T20:33:25.979Z,84.70
2018-01-12T20:35:53.476Z,84.70
2018-01-12T20:38:20.983Z,84.70
2018-01-12T20:40:48.493Z,84.70
2018-01-12T20:43:15.994Z,84.80
2018-01-12T20:45:43.500Z,84.90
2018-01-12T20:48:11.018Z,85.00
2018-01-12T20:50:38.536Z,84.90
2018-01-12T20:53:06.173Z,85.00
2018-01-12T20:55:33.680Z,84.60
2018-01-12T20:58:01.182Z,84.10
2018-01-12T21:00:29.470Z,82.90
2018-01-12T21:02:56.982Z,82.70
2018-01-12T21:05:24.690Z,82.90
2018-01-12T21:07:52.959Z,83.10
2018-01-12T21:10:20.466Z,83.10
2018-01-12T21:12:47.966Z,83.00
2018-01-12T21:15:16.235Z,82.30
2018-01-12T21:17:44.527Z,82.20
2018-01-12T21:20:12.815Z,82.40
2018-01-12T21:22:40.376Z,82.40
2018-01-12T21:25:07.847Z,82.70
2018-01-12T21:27:35.378Z,83.10
2018-01-12T21:30:03.659Z,83.40
2018-01-12T21:32:31.173Z,83.30
2018-01-12T21:34:58.696Z,83.60
2018-01-12T21:37:26.200Z,83.80
2018-01-12T21:39:53.708Z,83.70
2018-01-12T21:42:21.205Z,83.40
2018-01-12T21:44:48.747Z,83.30
2018-01-12T21:47:16.462Z,83.20
2018-01-12T21:49:44.746Z,83.40
2018-01-12T21:52:13.016Z,83.10
2018-01-12T21:54:41.283Z,82.80
2018-01-12T21:57:08.810Z,82.80
2018-01-12T21:59:36.316Z,83.70
2018-01-12T22:02:04.636Z,81.80
2018-01-12T22:04:32.158Z,81.90
2018-01-12T22:07:00.514Z,82.10
2018-01-12T22:09:28.026Z,82.10
2018-01-12T22:11:55.544Z,82.30
2018-01-12T22:14:23.829Z,81.70
2018-01-12T22:16:52.103Z,81.60
2018-01-12T22:19:20.380Z,82.00
2018-01-12T22:21:48.676Z,82.10
2018-01-12T22:24:16.260Z,82.00
2018-01-12T22:26:43.808Z,82.30
2018-01-12T22:29:11.325Z,82.50
2018-01-12T22:31:39.616Z,82.10
2018-01-12T22:34:07.895Z,82.20
2018-01-12T22:36:35.442Z,82.20
2018-01-12T22:39:03.770Z,82.10
2018-01-12T22:41:31.530Z,82.10
2018-01-12T22:43:59.087Z,82.20
2018-01-12T22:46:26.624Z,82.50
2018-01-12T22:48:54.156Z,82.30
2018-01-12T22:51:22.441Z,81.70
2018-01-12T22:53:50.780Z,82.00
2018-01-12T22:56:18.291Z,82.00
2018-01-12T22:58:45.831Z,82.50
2018-01-12T23:01:14.134Z,82.60
2018-01-12T23:03:41.942Z,82.60
2018-01-12T23:06:09.491Z,82.80
2018-01-12T23:08:37.056Z,83.00
2018-01-12T23:11:04.724Z,82.60
2018-01-12T23:13:32.380Z,82.70
2018-01-12T23:15:59.940Z,82.90
2018-01-12T23:18:27.600Z,83.30
2018-01-12T23:20:55.222Z,83.40
2018-01-12T23:23:22.735Z,83.30
2018-01-12T23:25:50.226Z,83.40
2018-01-12T23:28:17.732Z,83.40
2018-01-12T23:30:45.227Z,82.90
2018-01-12T23:33:13.490Z,81.60
2018-01-12T23:35:40.988Z,81.60
2018-01-12T23:38:08.498Z,82.10
2018-01-12T23:40:36.799Z,81.60
2018-01-12T23:43:05.072Z,81.70
2018-01-12T23:45:33.334Z,81.60
2018-01-12T23:48:00.870Z,81.60
2018-01-12T23:50:28.415Z,81.70
2018-01-12T23:52:56.470Z,82.10
2018-01-12T23:55:23.979Z,82.50
2018-01-12T23:57:51.471Z,82.60
